sensor_id;sensor_type;location;lat;lon;timestamp;P1;durP1;ratioP1;P2;durP2;ratioP2
61112;SDS011;47184;57.998;56.184;2023-05-10T00:00:47;7.30;;;2.40;;
61112;SDS011;47184;57.998;56.184;2023-05-10T00:03:13;12.95;;;2.72;;
61112;SDS011;47184;57.998;56.184;2023-05-10T00:05:39;11.63;;;2.55;;
61112;SDS011;47184;57.998;56.184;2023-05-10T00:08:05;8.02;;;2.33;;
61112;SDS011;47184;57.998;56.184;2023-05-10T00:10:31;7.05;;;2.00;;
61112;SDS011;47184;57.998;56.184;2023-05-10T00:12:58;12.82;;;2.67;;
61112;SDS011;47184;57.998;56.184;2023-05-10T00:15:24;8.20;;;2.40;;
61112;SDS011;47184;57.998;56.184;2023-05-10T00:17:50;8.57;;;3.00;;
61112;SDS011;47184;57.998;56.184;2023-05-10T00:20:16;13.55;;;2.80;;
61112;SDS011;47184;57.998;56.184;2023-05-10T00:22:42;14.95;;;4.03;;
61112;SDS011;47184;57.998;56.184;2023-05-10T00:25:08;9.25;;;2.97;;
61112;SDS011;47184;57.998;56.184;2023-05-10T00:27:35;14.15;;;3.60;;
61112;SDS011;47184;57.998;56.184;2023-05-10T00:30:02;18.95;;;5.90;;
61112;SDS011;47184;57.998;56.184;2023-05-10T00:32:33;21.75;;;5.78;;
61112;SDS011;47184;57.998;56.184;2023-05-10T00:34:59;39.53;;;11.98;;
61112;SDS011;47184;57.998;56.184;2023-05-10T00:37:26;25.90;;;8.70;;
61112;SDS011;47184;57.998;56.184;2023-05-10T00:39:52;34.22;;;11.00;;
61112;SDS011;47184;57.998;56.184;2023-05-10T00:42:18;41.20;;;14.57;;
61112;SDS011;47184;57.998;56.184;2023-05-10T00:44:45;44.67;;;15.00;;
61112;SDS011;47184;57.998;56.184;2023-05-10T00:47:12;62.70;;;17.92;;
61112;SDS011;47184;57.998;56.184;2023-05-10T00:49:38;47.67;;;15.73;;
61112;SDS011;47184;57.998;56.184;2023-05-10T00:52:04;70.75;;;23.08;;
61112;SDS011;47184;57.998;56.184;2023-05-10T00:54:31;66.07;;;20.10;;
61112;SDS011;47184;57.998;56.184;2023-05-10T00:56:57;115.68;;;32.78;;
61112;SDS011;47184;57.998;56.184;2023-05-10T00:59:24;99.72;;;28.48;;
61112;SDS011;47184;57.998;56.184;2023-05-10T01:01:52;100.68;;;27.13;;
61112;SDS011;47184;57.998;56.184;2023-05-10T01:04:19;87.70;;;24.48;;
61112;SDS011;47184;57.998;56.184;2023-05-10T01:06:51;73.18;;;21.52;;
61112;SDS011;47184;57.998;56.184;2023-05-10T01:09:19;61.17;;;16.88;;
61112;SDS011;47184;57.998;56.184;2023-05-10T01:11:47;61.28;;;17.40;;
61112;SDS011;47184;57.998;56.184;2023-05-10T01:14:14;62.75;;;18.60;;
61112;SDS011;47184;57.998;56.184;2023-05-10T01:16:43;60.95;;;17.85;;
61112;SDS011;47184;57.998;56.184;2023-05-10T01:19:29;77.97;;;20.83;;
61112;SDS011;47184;57.998;56.184;2023-05-10T01:25:11;100.68;;;27.42;;
61112;SDS011;47184;57.998;56.184;2023-05-10T01:34:05;110.22;;;27.63;;
61112;SDS011;47184;57.998;56.184;2023-05-10T01:39:09;144.85;;;31.77;;
61112;SDS011;47184;57.998;56.184;2023-05-10T01:41:51;110.55;;;26.38;;
61112;SDS011;47184;57.998;56.184;2023-05-10T01:44:35;102.95;;;25.42;;
61112;SDS011;47184;57.998;56.184;2023-05-10T01:47:12;120.78;;;30.48;;
61112;SDS011;47184;57.998;56.184;2023-05-10T01:49:47;137.88;;;30.02;;
61112;SDS011;47184;57.998;56.184;2023-05-10T01:52:16;121.38;;;27.08;;
61112;SDS011;47184;57.998;56.184;2023-05-10T01:54:49;95.05;;;22.02;;
61112;SDS011;47184;57.998;56.184;2023-05-10T01:57:21;101.28;;;21.85;;
61112;SDS011;47184;57.998;56.184;2023-05-10T01:59:51;101.72;;;20.85;;
61112;SDS011;47184;57.998;56.184;2023-05-10T02:02:20;89.45;;;17.90;;
61112;SDS011;47184;57.998;56.184;2023-05-10T02:04:47;71.18;;;15.00;;
61112;SDS011;47184;57.998;56.184;2023-05-10T02:07:16;78.00;;;14.00;;
61112;SDS011;47184;57.998;56.184;2023-05-10T02:09:44;57.80;;;12.57;;
61112;SDS011;47184;57.998;56.184;2023-05-10T02:12:14;55.97;;;10.70;;
61112;SDS011;47184;57.998;56.184;2023-05-10T02:14:41;46.35;;;9.77;;
61112;SDS011;47184;57.998;56.184;2023-05-10T02:17:10;41.25;;;9.38;;
61112;SDS011;47184;57.998;56.184;2023-05-10T02:19:37;44.60;;;9.90;;
61112;SDS011;47184;57.998;56.184;2023-05-10T02:22:06;49.55;;;9.88;;
61112;SDS011;47184;57.998;56.184;2023-05-10T02:24:34;68.43;;;11.77;;
61112;SDS011;47184;57.998;56.184;2023-05-10T02:27:02;59.15;;;11.65;;
61112;SDS011;47184;57.998;56.184;2023-05-10T02:29:31;57.05;;;10.82;;
61112;SDS011;47184;57.998;56.184;2023-05-10T02:31:58;55.97;;;10.98;;
61112;SDS011;47184;57.998;56.184;2023-05-10T02:34:26;72.10;;;11.07;;
61112;SDS011;47184;57.998;56.184;2023-05-10T02:36:54;39.92;;;8.80;;
61112;SDS011;47184;57.998;56.184;2023-05-10T02:39:22;55.20;;;9.27;;
61112;SDS011;47184;57.998;56.184;2023-05-10T02:41:50;48.42;;;7.95;;
61112;SDS011;47184;57.998;56.184;2023-05-10T02:44:18;32.03;;;8.10;;
61112;SDS011;47184;57.998;56.184;2023-05-10T02:46:46;39.92;;;8.52;;
61112;SDS011;47184;57.998;56.184;2023-05-10T02:49:13;38.90;;;7.80;;
61112;SDS011;47184;57.998;56.184;2023-05-10T02:51:42;36.95;;;8.20;;
61112;SDS011;47184;57.998;56.184;2023-05-10T02:54:15;29.20;;;6.45;;
61112;SDS011;47184;57.998;56.184;2023-05-10T02:56:47;47.53;;;8.93;;
61112;SDS011;47184;57.998;56.184;2023-05-10T02:59:16;29.38;;;6.95;;
61112;SDS011;47184;57.998;56.184;2023-05-10T03:01:42;24.27;;;6.57;;
61112;SDS011;47184;57.998;56.184;2023-05-10T03:04:08;30.95;;;6.60;;
61112;SDS011;47184;57.998;56.184;2023-05-10T03:06:34;25.95;;;7.00;;
61112;SDS011;47184;57.998;56.184;2023-05-10T03:09:02;22.38;;;6.57;;
61112;SDS011;47184;57.998;56.184;2023-05-10T03:11:37;41.78;;;7.65;;
61112;SDS011;47184;57.998;56.184;2023-05-10T03:14:16;25.20;;;6.40;;
61112;SDS011;47184;57.998;56.184;2023-05-10T03:17:00;31.00;;;5.90;;
61112;SDS011;47184;57.998;56.184;2023-05-10T03:22:21;17.60;;;4.13;;
61112;SDS011;47184;57.998;56.184;2023-05-10T03:24:53;12.40;;;4.47;;
61112;SDS011;47184;57.998;56.184;2023-05-10T03:27:25;15.60;;;4.15;;
61112;SDS011;47184;57.998;56.184;2023-05-10T03:29:54;13.43;;;3.97;;
61112;SDS011;47184;57.998;56.184;2023-05-10T03:32:22;19.40;;;4.82;;
61112;SDS011;47184;57.998;56.184;2023-05-10T03:34:48;23.70;;;4.80;;
61112;SDS011;47184;57.998;56.184;2023-05-10T03:37:15;14.88;;;3.50;;
61112;SDS011;47184;57.998;56.184;2023-05-10T03:39:41;12.18;;;4.43;;
61112;SDS011;47184;57.998;56.184;2023-05-10T03:42:08;13.68;;;3.92;;
61112;SDS011;47184;57.998;56.184;2023-05-10T03:44:40;10.00;;;3.05;;
61112;SDS011;47184;57.998;56.184;2023-05-10T03:47:07;12.32;;;3.42;;
61112;SDS011;47184;57.998;56.184;2023-05-10T03:49:34;21.23;;;2.92;;
61112;SDS011;47184;57.998;56.184;2023-05-10T03:52:01;13.10;;;3.30;;
61112;SDS011;47184;57.998;56.184;2023-05-10T03:54:27;16.35;;;3.33;;
61112;SDS011;47184;57.998;56.184;2023-05-10T03:56:53;15.68;;;4.28;;
61112;SDS011;47184;57.998;56.184;2023-05-10T03:59:21;14.43;;;3.30;;
61112;SDS011;47184;57.998;56.184;2023-05-10T04:01:47;15.60;;;2.72;;
61112;SDS011;47184;57.998;56.184;2023-05-10T04:04:13;12.27;;;3.63;;
61112;SDS011;47184;57.998;56.184;2023-05-10T04:06:39;19.65;;;2.90;;
61112;SDS011;47184;57.998;56.184;2023-05-10T04:09:05;13.07;;;3.13;;
61112;SDS011;47184;57.998;56.184;2023-05-10T04:11:31;12.48;;;2.97;;
61112;SDS011;47184;57.998;56.184;2023-05-10T04:13:57;10.93;;;2.25;;
61112;SDS011;47184;57.998;56.184;2023-05-10T04:16:24;6.50;;;2.03;;
61112;SDS011;47184;57.998;56.184;2023-05-10T04:18:50;6.47;;;1.73;;
61112;SDS011;47184;57.998;56.184;2023-05-10T04:21:16;6.30;;;1.80;;
61112;SDS011;47184;57.998;56.184;2023-05-10T04:23:42;9.10;;;1.98;;
61112;SDS011;47184;57.998;56.184;2023-05-10T04:26:08;13.88;;;2.53;;
61112;SDS011;47184;57.998;56.184;2023-05-10T04:28:35;9.13;;;2.20;;
61112;SDS011;47184;57.998;56.184;2023-05-10T04:31:04;8.77;;;1.90;;
61112;SDS011;47184;57.998;56.184;2023-05-10T04:33:32;14.63;;;1.75;;
61112;SDS011;47184;57.998;56.184;2023-05-10T04:36:00;12.05;;;1.88;;
61112;SDS011;47184;57.998;56.184;2023-05-10T04:38:27;11.90;;;1.75;;
61112;SDS011;47184;57.998;56.184;2023-05-10T04:41:06;13.65;;;2.30;;
61112;SDS011;47184;57.998;56.184;2023-05-10T04:43:34;7.68;;;1.77;;
61112;SDS011;47184;57.998;56.184;2023-05-10T04:46:01;15.35;;;2.28;;
61112;SDS011;47184;57.998;56.184;2023-05-10T04:48:27;4.00;;;2.00;;
61112;SDS011;47184;57.998;56.184;2023-05-10T04:50:54;4.05;;;1.45;;
61112;SDS011;47184;57.998;56.184;2023-05-10T04:53:21;4.63;;;1.58;;
61112;SDS011;47184;57.998;56.184;2023-05-10T04:55:47;11.77;;;2.20;;
61112;SDS011;47184;57.998;56.184;2023-05-10T04:58:13;5.25;;;1.73;;
61112;SDS011;47184;57.998;56.184;2023-05-10T05:00:39;7.90;;;2.00;;
61112;SDS011;47184;57.998;56.184;2023-05-10T05:03:06;2.50;;;1.15;;
61112;SDS011;47184;57.998;56.184;2023-05-10T05:05:32;9.43;;;2.45;;
61112;SDS011;47184;57.998;56.184;2023-05-10T05:07:58;17.27;;;3.00;;
61112;SDS011;47184;57.998;56.184;2023-05-10T05:10:24;7.82;;;1.75;;
61112;SDS011;47184;57.998;56.184;2023-05-10T05:12:50;13.00;;;2.15;;
61112;SDS011;47184;57.998;56.184;2023-05-10T05:15:16;14.60;;;2.05;;
61112;SDS011;47184;57.998;56.184;2023-05-10T05:17:43;1.25;;;0.50;;
61112;SDS011;47184;57.998;56.184;2023-05-10T05:20:09;10.90;;;1.80;;
61112;SDS011;47184;57.998;56.184;2023-05-10T05:22:37;35.35;;;3.55;;
61112;SDS011;47184;57.998;56.184;2023-05-10T05:25:03;14.82;;;2.90;;
61112;SDS011;47184;57.998;56.184;2023-05-10T05:27:32;23.38;;;3.03;;
61112;SDS011;47184;57.998;56.184;2023-05-10T05:29:58;9.30;;;1.98;;
61112;SDS011;47184;57.998;56.184;2023-05-10T05:32:25;15.57;;;1.90;;
61112;SDS011;47184;57.998;56.184;2023-05-10T05:34:51;5.68;;;0.85;;
61112;SDS011;47184;57.998;56.184;2023-05-10T05:37:18;10.40;;;1.60;;
61112;SDS011;47184;57.998;56.184;2023-05-10T05:39:46;9.73;;;1.77;;
61112;SDS011;47184;57.998;56.184;2023-05-10T05:42:13;12.85;;;2.20;;
61112;SDS011;47184;57.998;56.184;2023-05-10T05:44:41;13.63;;;2.38;;
61112;SDS011;47184;57.998;56.184;2023-05-10T05:47:08;20.00;;;2.78;;
61112;SDS011;47184;57.998;56.184;2023-05-10T05:49:34;9.55;;;2.17;;
61112;SDS011;47184;57.998;56.184;2023-05-10T05:52:01;8.07;;;2.42;;
61112;SDS011;47184;57.998;56.184;2023-05-10T05:54:30;9.30;;;1.73;;
61112;SDS011;47184;57.998;56.184;2023-05-10T05:56:57;10.20;;;2.20;;
61112;SDS011;47184;57.998;56.184;2023-05-10T05:59:24;8.40;;;1.80;;
61112;SDS011;47184;57.998;56.184;2023-05-10T06:01:50;6.90;;;1.73;;
61112;SDS011;47184;57.998;56.184;2023-05-10T06:04:16;5.28;;;1.05;;
61112;SDS011;47184;57.998;56.184;2023-05-10T06:06:43;5.75;;;1.30;;
61112;SDS011;47184;57.998;56.184;2023-05-10T06:09:09;4.50;;;1.30;;
61112;SDS011;47184;57.998;56.184;2023-05-10T06:11:35;6.10;;;1.13;;
61112;SDS011;47184;57.998;56.184;2023-05-10T06:14:02;5.00;;;2.35;;
61112;SDS011;47184;57.998;56.184;2023-05-10T06:16:30;9.90;;;1.63;;
61112;SDS011;47184;57.998;56.184;2023-05-10T06:18:56;8.80;;;1.00;;
61112;SDS011;47184;57.998;56.184;2023-05-10T06:21:22;13.18;;;1.40;;
61112;SDS011;47184;57.998;56.184;2023-05-10T06:23:48;5.00;;;0.70;;
61112;SDS011;47184;57.998;56.184;2023-05-10T06:26:14;10.70;;;1.73;;
61112;SDS011;47184;57.998;56.184;2023-05-10T06:28:41;6.70;;;1.50;;
61112;SDS011;47184;57.998;56.184;2023-05-10T06:31:07;8.07;;;2.10;;
61112;SDS011;47184;57.998;56.184;2023-05-10T06:33:33;17.35;;;1.85;;
61112;SDS011;47184;57.998;56.184;2023-05-10T06:36:00;11.63;;;1.50;;
61112;SDS011;47184;57.998;56.184;2023-05-10T06:38:26;9.75;;;1.00;;
61112;SDS011;47184;57.998;56.184;2023-05-10T06:40:52;8.63;;;1.35;;
61112;SDS011;47184;57.998;56.184;2023-05-10T06:43:18;11.80;;;1.10;;
61112;SDS011;47184;57.998;56.184;2023-05-10T06:45:44;22.05;;;2.33;;
61112;SDS011;47184;57.998;56.184;2023-05-10T06:48:10;10.30;;;1.13;;
61112;SDS011;47184;57.998;56.184;2023-05-10T06:50:36;2.85;;;0.80;;
61112;SDS011;47184;57.998;56.184;2023-05-10T06:53:02;4.15;;;1.10;;
61112;SDS011;47184;57.998;56.184;2023-05-10T06:55:29;1.73;;;0.68;;
61112;SDS011;47184;57.998;56.184;2023-05-10T06:57:55;13.10;;;0.98;;
61112;SDS011;47184;57.998;56.184;2023-05-10T07:00:21;4.07;;;0.88;;
61112;SDS011;47184;57.998;56.184;2023-05-10T07:02:47;5.65;;;0.88;;
61112;SDS011;47184;57.998;56.184;2023-05-10T07:05:14;3.08;;;0.77;;
61112;SDS011;47184;57.998;56.184;2023-05-10T07:07:40;7.05;;;1.98;;
61112;SDS011;47184;57.998;56.184;2023-05-10T07:10:06;5.75;;;0.98;;
61112;SDS011;47184;57.998;56.184;2023-05-10T07:12:33;7.07;;;1.23;;
61112;SDS011;47184;57.998;56.184;2023-05-10T07:14:59;7.28;;;1.20;;
61112;SDS011;47184;57.998;56.184;2023-05-10T07:17:25;3.50;;;0.95;;
61112;SDS011;47184;57.998;56.184;2023-05-10T07:19:51;1.67;;;0.52;;
61112;SDS011;47184;57.998;56.184;2023-05-10T07:22:17;2.30;;;0.75;;
61112;SDS011;47184;57.998;56.184;2023-05-10T07:24:45;3.45;;;0.52;;
61112;SDS011;47184;57.998;56.184;2023-05-10T07:27:11;27.33;;;9.75;;
61112;SDS011;47184;57.998;56.184;2023-05-10T07:29:38;1.70;;;0.60;;
61112;SDS011;47184;57.998;56.184;2023-05-10T07:32:04;1.95;;;0.70;;
61112;SDS011;47184;57.998;56.184;2023-05-10T07:34:31;6.50;;;0.88;;
61112;SDS011;47184;57.998;56.184;2023-05-10T07:36:58;4.07;;;0.73;;
61112;SDS011;47184;57.998;56.184;2023-05-10T07:39:25;25.15;;;2.03;;
61112;SDS011;47184;57.998;56.184;2023-05-10T07:41:52;8.75;;;0.98;;
61112;SDS011;47184;57.998;56.184;2023-05-10T07:44:18;6.00;;;0.70;;
61112;SDS011;47184;57.998;56.184;2023-05-10T07:46:46;4.88;;;0.75;;
61112;SDS011;47184;57.998;56.184;2023-05-10T07:49:13;8.35;;;1.90;;
61112;SDS011;47184;57.998;56.184;2023-05-10T07:51:39;4.00;;;1.02;;
61112;SDS011;47184;57.998;56.184;2023-05-10T07:54:06;1.63;;;0.80;;
61112;SDS011;47184;57.998;56.184;2023-05-10T07:56:32;3.53;;;0.75;;
61112;SDS011;47184;57.998;56.184;2023-05-10T07:59:04;19.10;;;1.50;;
61112;SDS011;47184;57.998;56.184;2023-05-10T08:01:32;3.60;;;0.90;;
61112;SDS011;47184;57.998;56.184;2023-05-10T08:04:00;1.67;;;0.82;;
61112;SDS011;47184;57.998;56.184;2023-05-10T08:06:27;2.28;;;0.63;;
61112;SDS011;47184;57.998;56.184;2023-05-10T08:08:55;2.17;;;0.70;;
61112;SDS011;47184;57.998;56.184;2023-05-10T08:11:22;3.35;;;1.40;;
61112;SDS011;47184;57.998;56.184;2023-05-10T08:13:49;5.63;;;0.90;;
61112;SDS011;47184;57.998;56.184;2023-05-10T08:16:16;4.20;;;0.90;;
61112;SDS011;47184;57.998;56.184;2023-05-10T08:18:43;3.15;;;1.30;;
61112;SDS011;47184;57.998;56.184;2023-05-10T08:21:13;6.05;;;1.15;;
61112;SDS011;47184;57.998;56.184;2023-05-10T08:23:40;10.05;;;1.90;;
61112;SDS011;47184;57.998;56.184;2023-05-10T08:26:06;15.18;;;2.35;;
61112;SDS011;47184;57.998;56.184;2023-05-10T08:28:32;23.88;;;2.80;;
61112;SDS011;47184;57.998;56.184;2023-05-10T08:30:58;29.13;;;2.85;;
61112;SDS011;47184;57.998;56.184;2023-05-10T08:33:25;19.15;;;2.33;;
61112;SDS011;47184;57.998;56.184;2023-05-10T08:35:51;38.20;;;3.65;;
61112;SDS011;47184;57.998;56.184;2023-05-10T08:38:17;8.05;;;1.25;;
61112;SDS011;47184;57.998;56.184;2023-05-10T08:40:44;0.82;;;0.63;;
61112;SDS011;47184;57.998;56.184;2023-05-10T08:43:11;26.55;;;2.42;;
61112;SDS011;47184;57.998;56.184;2023-05-10T08:45:40;9.55;;;1.70;;
61112;SDS011;47184;57.998;56.184;2023-05-10T08:48:08;26.90;;;2.63;;
61112;SDS011;47184;57.998;56.184;2023-05-10T08:50:36;24.42;;;8.40;;
61112;SDS011;47184;57.998;56.184;2023-05-10T08:53:04;3.75;;;1.00;;
61112;SDS011;47184;57.998;56.184;2023-05-10T08:55:34;24.98;;;1.50;;
61112;SDS011;47184;57.998;56.184;2023-05-10T08:58:04;21.45;;;2.08;;
61112;SDS011;47184;57.998;56.184;2023-05-10T09:00:34;8.20;;;1.45;;
61112;SDS011;47184;57.998;56.184;2023-05-10T09:03:03;7.38;;;1.20;;
61112;SDS011;47184;57.998;56.184;2023-05-10T09:05:30;6.32;;;1.00;;
61112;SDS011;47184;57.998;56.184;2023-05-10T09:07:57;3.60;;;0.60;;
61112;SDS011;47184;57.998;56.184;2023-05-10T09:10:26;1.65;;;0.70;;
61112;SDS011;47184;57.998;56.184;2023-05-10T09:12:53;31.77;;;2.58;;
61112;SDS011;47184;57.998;56.184;2023-05-10T09:15:22;6.22;;;0.80;;
61112;SDS011;47184;57.998;56.184;2023-05-10T09:17:49;8.18;;;0.90;;
61112;SDS011;47184;57.998;56.184;2023-05-10T09:20:15;3.58;;;0.95;;
61112;SDS011;47184;57.998;56.184;2023-05-10T09:22:43;8.75;;;0.82;;
61112;SDS011;47184;57.998;56.184;2023-05-10T09:25:11;5.85;;;1.10;;
61112;SDS011;47184;57.998;56.184;2023-05-10T09:27:43;3.40;;;0.88;;
61112;SDS011;47184;57.998;56.184;2023-05-10T09:30:30;5.18;;;0.88;;
61112;SDS011;47184;57.998;56.184;2023-05-10T09:32:58;4.03;;;1.23;;
61112;SDS011;47184;57.998;56.184;2023-05-10T09:35:25;4.80;;;0.95;;
61112;SDS011;47184;57.998;56.184;2023-05-10T09:37:54;7.50;;;1.20;;
61112;SDS011;47184;57.998;56.184;2023-05-10T09:40:25;11.15;;;1.55;;
61112;SDS011;47184;57.998;56.184;2023-05-10T09:43:04;31.10;;;2.50;;
61112;SDS011;47184;57.998;56.184;2023-05-10T09:45:33;3.58;;;1.17;;
61112;SDS011;47184;57.998;56.184;2023-05-10T09:48:02;3.70;;;1.10;;
61112;SDS011;47184;57.998;56.184;2023-05-10T09:50:29;3.88;;;1.10;;
61112;SDS011;47184;57.998;56.184;2023-05-10T09:52:59;17.20;;;0.82;;
61112;SDS011;47184;57.998;56.184;2023-05-10T09:55:38;2.40;;;1.10;;
61112;SDS011;47184;57.998;56.184;2023-05-10T09:58:06;4.95;;;0.65;;
61112;SDS011;47184;57.998;56.184;2023-05-10T10:00:36;12.07;;;1.60;;
61112;SDS011;47184;57.998;56.184;2023-05-10T10:03:04;4.07;;;1.00;;
61112;SDS011;47184;57.998;56.184;2023-05-10T10:05:34;9.00;;;1.35;;
61112;SDS011;47184;57.998;56.184;2023-05-10T10:08:04;1.50;;;0.80;;
61112;SDS011;47184;57.998;56.184;2023-05-10T10:10:31;14.88;;;1.60;;
61112;SDS011;47184;57.998;56.184;2023-05-10T10:12:59;17.08;;;1.67;;
61112;SDS011;47184;57.998;56.184;2023-05-10T10:15:25;12.40;;;1.27;;
61112;SDS011;47184;57.998;56.184;2023-05-10T10:17:52;2.42;;;0.95;;
61112;SDS011;47184;57.998;56.184;2023-05-10T10:20:19;4.47;;;1.27;;
61112;SDS011;47184;57.998;56.184;2023-05-10T10:22:46;4.80;;;1.10;;
61112;SDS011;47184;57.998;56.184;2023-05-10T10:25:14;4.10;;;2.20;;
61112;SDS011;47184;57.998;56.184;2023-05-10T10:36:12;2.40;;;0.77;;
61112;SDS011;47184;57.998;56.184;2023-05-10T10:41:30;6.05;;;1.00;;
61112;SDS011;47184;57.998;56.184;2023-05-10T10:47:21;7.85;;;1.00;;
61112;SDS011;47184;57.998;56.184;2023-05-10T10:52:24;3.65;;;1.27;;
61112;SDS011;47184;57.998;56.184;2023-05-10T10:55:01;3.33;;;1.10;;
61112;SDS011;47184;57.998;56.184;2023-05-10T10:57:54;10.98;;;1.10;;
61112;SDS011;47184;57.998;56.184;2023-05-10T11:00:30;2.83;;;0.90;;
61112;SDS011;47184;57.998;56.184;2023-05-10T11:08:07;7.15;;;1.00;;
61112;SDS011;47184;57.998;56.184;2023-05-10T11:10:33;2.92;;;0.90;;
61112;SDS011;47184;57.998;56.184;2023-05-10T11:13:04;2.47;;;0.90;;
61112;SDS011;47184;57.998;56.184;2023-05-10T11:15:35;3.15;;;0.90;;
61112;SDS011;47184;57.998;56.184;2023-05-10T11:18:18;10.05;;;1.00;;
61112;SDS011;47184;57.998;56.184;2023-05-10T11:21:01;6.43;;;3.00;;
61112;SDS011;47184;57.998;56.184;2023-05-10T11:23:29;9.40;;;1.05;;
61112;SDS011;47184;57.998;56.184;2023-05-10T11:25:57;13.52;;;1.73;;
61112;SDS011;47184;57.998;56.184;2023-05-10T11:28:25;1.48;;;0.82;;
61112;SDS011;47184;57.998;56.184;2023-05-10T11:30:53;5.55;;;1.10;;
61112;SDS011;47184;57.998;56.184;2023-05-10T11:33:21;9.80;;;1.10;;
61112;SDS011;47184;57.998;56.184;2023-05-10T11:35:48;4.65;;;0.88;;
61112;SDS011;47184;57.998;56.184;2023-05-10T11:38:14;8.65;;;1.63;;
61112;SDS011;47184;57.998;56.184;2023-05-10T11:40:40;2.70;;;0.60;;
61112;SDS011;47184;57.998;56.184;2023-05-10T11:43:08;2.60;;;0.85;;
61112;SDS011;47184;57.998;56.184;2023-05-10T11:45:36;11.88;;;2.78;;
61112;SDS011;47184;57.998;56.184;2023-05-10T11:48:02;3.17;;;0.60;;
61112;SDS011;47184;57.998;56.184;2023-05-10T11:50:29;2.38;;;0.98;;
61112;SDS011;47184;57.998;56.184;2023-05-10T11:52:56;2.28;;;0.73;;
61112;SDS011;47184;57.998;56.184;2023-05-10T11:55:22;2.63;;;0.88;;
61112;SDS011;47184;57.998;56.184;2023-05-10T11:57:52;11.93;;;1.55;;
61112;SDS011;47184;57.998;56.184;2023-05-10T12:00:20;3.60;;;0.88;;
61112;SDS011;47184;57.998;56.184;2023-05-10T12:02:47;10.88;;;1.02;;
61112;SDS011;47184;57.998;56.184;2023-05-10T12:05:14;8.15;;;0.70;;
61112;SDS011;47184;57.998;56.184;2023-05-10T12:07:40;8.02;;;1.10;;
61112;SDS011;47184;57.998;56.184;2023-05-10T12:10:08;7.20;;;1.00;;
61112;SDS011;47184;57.998;56.184;2023-05-10T12:12:41;3.45;;;0.73;;
61112;SDS011;47184;57.998;56.184;2023-05-10T12:15:16;5.88;;;0.90;;
61112;SDS011;47184;57.998;56.184;2023-05-10T12:17:44;3.10;;;0.90;;
61112;SDS011;47184;57.998;56.184;2023-05-10T12:20:18;28.73;;;3.05;;
61112;SDS011;47184;57.998;56.184;2023-05-10T12:22:53;2.40;;;0.68;;
61112;SDS011;47184;57.998;56.184;2023-05-10T12:25:21;21.02;;;1.65;;
61112;SDS011;47184;57.998;56.184;2023-05-10T12:27:52;9.82;;;1.38;;
61112;SDS011;47184;57.998;56.184;2023-05-10T12:30:26;6.13;;;0.95;;
61112;SDS011;47184;57.998;56.184;2023-05-10T12:33:11;4.60;;;1.10;;
61112;SDS011;47184;57.998;56.184;2023-05-10T12:35:50;4.45;;;1.10;;
61112;SDS011;47184;57.998;56.184;2023-05-10T12:38:27;12.77;;;1.38;;
61112;SDS011;47184;57.998;56.184;2023-05-10T12:41:02;2.28;;;1.20;;
61112;SDS011;47184;57.998;56.184;2023-05-10T12:43:33;2.40;;;0.82;;
61112;SDS011;47184;57.998;56.184;2023-05-10T12:46:10;5.82;;;1.10;;
61112;SDS011;47184;57.998;56.184;2023-05-10T12:48:38;2.55;;;1.10;;
61112;SDS011;47184;57.998;56.184;2023-05-10T12:51:05;3.60;;;1.10;;
61112;SDS011;47184;57.998;56.184;2023-05-10T12:53:35;3.40;;;1.00;;
61112;SDS011;47184;57.998;56.184;2023-05-10T12:56:01;3.22;;;1.33;;
61112;SDS011;47184;57.998;56.184;2023-05-10T12:58:27;2.80;;;1.10;;
61112;SDS011;47184;57.998;56.184;2023-05-10T13:00:54;2.97;;;0.90;;
61112;SDS011;47184;57.998;56.184;2023-05-10T13:03:22;12.50;;;1.23;;
61112;SDS011;47184;57.998;56.184;2023-05-10T13:05:48;8.00;;;1.23;;
61112;SDS011;47184;57.998;56.184;2023-05-10T13:08:15;6.10;;;1.23;;
61112;SDS011;47184;57.998;56.184;2023-05-10T13:10:41;4.35;;;1.02;;
61112;SDS011;47184;57.998;56.184;2023-05-10T13:13:07;5.25;;;0.82;;
61112;SDS011;47184;57.998;56.184;2023-05-10T13:15:34;1.90;;;0.60;;
61112;SDS011;47184;57.998;56.184;2023-05-10T13:18:00;8.52;;;0.85;;
61112;SDS011;47184;57.998;56.184;2023-05-10T13:20:26;5.97;;;0.93;;
61112;SDS011;47184;57.998;56.184;2023-05-10T13:22:53;7.72;;;0.90;;
61112;SDS011;47184;57.998;56.184;2023-05-10T13:25:19;4.53;;;0.65;;
61112;SDS011;47184;57.998;56.184;2023-05-10T13:27:46;3.22;;;0.80;;
61112;SDS011;47184;57.998;56.184;2023-05-10T13:30:12;6.28;;;0.70;;
61112;SDS011;47184;57.998;56.184;2023-05-10T13:32:38;13.88;;;0.80;;
61112;SDS011;47184;57.998;56.184;2023-05-10T13:35:05;7.05;;;0.98;;
61112;SDS011;47184;57.998;56.184;2023-05-10T13:37:32;7.07;;;1.10;;
61112;SDS011;47184;57.998;56.184;2023-05-10T13:40:03;12.52;;;1.73;;
61112;SDS011;47184;57.998;56.184;2023-05-10T13:42:32;18.23;;;1.80;;
61112;SDS011;47184;57.998;56.184;2023-05-10T13:45:00;11.07;;;1.50;;
61112;SDS011;47184;57.998;56.184;2023-05-10T13:47:33;8.10;;;1.00;;
61112;SDS011;47184;57.998;56.184;2023-05-10T13:50:00;15.63;;;1.60;;
61112;SDS011;47184;57.998;56.184;2023-05-10T13:52:31;19.20;;;1.85;;
61112;SDS011;47184;57.998;56.184;2023-05-10T13:54:57;20.92;;;1.75;;
61112;SDS011;47184;57.998;56.184;2023-05-10T13:57:24;40.67;;;3.33;;
61112;SDS011;47184;57.998;56.184;2023-05-10T13:59:50;9.95;;;1.25;;
61112;SDS011;47184;57.998;56.184;2023-05-10T14:02:16;13.43;;;1.25;;
61112;SDS011;47184;57.998;56.184;2023-05-10T14:04:43;2.13;;;0.90;;
61112;SDS011;47184;57.998;56.184;2023-05-10T14:07:09;5.88;;;1.63;;
61112;SDS011;47184;57.998;56.184;2023-05-10T14:09:35;21.92;;;0.90;;
61112;SDS011;47184;57.998;56.184;2023-05-10T14:12:01;14.00;;;1.63;;
61112;SDS011;47184;57.998;56.184;2023-05-10T14:14:27;27.98;;;1.70;;
61112;SDS011;47184;57.998;56.184;2023-05-10T14:16:54;6.13;;;1.00;;
61112;SDS011;47184;57.998;56.184;2023-05-10T14:19:20;2.05;;;0.82;;
61112;SDS011;47184;57.998;56.184;2023-05-10T14:21:47;18.15;;;2.38;;
61112;SDS011;47184;57.998;56.184;2023-05-10T14:24:13;17.38;;;1.75;;
61112;SDS011;47184;57.998;56.184;2023-05-10T14:26:39;6.40;;;1.17;;
61112;SDS011;47184;57.998;56.184;2023-05-10T14:29:14;2.25;;;0.60;;
61112;SDS011;47184;57.998;56.184;2023-05-10T14:31:40;2.80;;;0.70;;
61112;SDS011;47184;57.998;56.184;2023-05-10T14:34:07;5.70;;;1.52;;
61112;SDS011;47184;57.998;56.184;2023-05-10T14:36:33;7.32;;;0.88;;
61112;SDS011;47184;57.998;56.184;2023-05-10T14:38:59;19.35;;;1.70;;
61112;SDS011;47184;57.998;56.184;2023-05-10T14:41:25;12.65;;;1.08;;
61112;SDS011;47184;57.998;56.184;2023-05-10T14:43:51;3.58;;;0.82;;
61112;SDS011;47184;57.998;56.184;2023-05-10T14:46:17;6.25;;;0.70;;
61112;SDS011;47184;57.998;56.184;2023-05-10T14:48:44;15.32;;;1.08;;
61112;SDS011;47184;57.998;56.184;2023-05-10T14:51:10;4.50;;;0.93;;
61112;SDS011;47184;57.998;56.184;2023-05-10T14:53:36;24.70;;;1.60;;
61112;SDS011;47184;57.998;56.184;2023-05-10T14:56:02;8.82;;;0.90;;
61112;SDS011;47184;57.998;56.184;2023-05-10T14:58:28;15.77;;;1.70;;
61112;SDS011;47184;57.998;56.184;2023-05-10T15:00:59;9.10;;;1.30;;
61112;SDS011;47184;57.998;56.184;2023-05-10T15:03:25;22.77;;;1.80;;
61112;SDS011;47184;57.998;56.184;2023-05-10T15:05:51;7.97;;;1.63;;
61112;SDS011;47184;57.998;56.184;2023-05-10T15:08:18;7.78;;;1.50;;